| time (UTC) | temp F | wind direction | speed MPH | gust MPH | rain 1hr in | rain 24hr in | rain mn in | humidity % | barometer mb |
| 20260504090107 | 56 | 40 | 1.0 | 3.0 | 0.00 | 0.00 | 0.00 | 70 | 1013.1 |
| 20260504081021 | 56 | 339 | 2.0 | 4.0 | 0.00 | 0.00 | 0.00 | 70 | 1013.2 |
| 20260504050021 | 56 | 326 | 2.0 | 5.0 | 0.00 | 0.00 | 0.00 | 67 | 1014.4 |
| 20260504045025 | 56 | 85 | 1.0 | 2.0 | 0.00 | 0.00 | 0.00 | 67 | 1014.4 |
| 20260504044025 | 56 | 282 | 1.0 | 3.0 | 0.00 | 0.00 | 0.00 | 67 | 1014.5 |
| 20260504043025 | 56 | 79 | 1.0 | 2.0 | 0.00 | 0.00 | 0.00 | 67 | 1014.5 |
| 20260504042025 | 56 | 312 | 1.0 | 3.0 | 0.00 | 0.00 | 0.00 | 66 | 1014.7 |
| 20260504041025 | 57 | 88 | 1.0 | 1.0 | 0.00 | 0.00 | 0.00 | 65 | 1014.7 |
| 20260504040026 | 57 | 244 | 1.0 | 3.0 | 0.00 | 0.00 | 0.00 | 64 | 1014.9 |
| 20260504035019 | 57 | 53 | 1.0 | 3.0 | 0.00 | 0.00 | 0.00 | 64 | 1015.0 |
| 20260504034039 | 57 | 331 | 1.0 | 2.0 | 0.00 | 0.00 | 0.00 | 63 | 1015.1 |
| 20260504033019 | 57 | 315 | 1.0 | 3.0 | 0.00 | 0.00 | 0.00 | 63 | 1015.0 |
| 20260504032016 | 58 | 63 | 1.0 | 2.0 | 0.00 | 0.00 | 0.00 | 62 | 1014.9 |
| 20260504031016 | 58 | 291 | 1.0 | 2.0 | 0.00 | 0.00 | 0.00 | 61 | 1015.1 |
| 20260504030019 | 58 | 24 | 1.0 | 2.0 | 0.00 | 0.00 | 0.00 | 61 | 1015.0 |
| 20260504025020 | 58 | 133 | 1.0 | 3.0 | 0.00 | 0.00 | 0.00 | 61 | 1014.9 |
| 20260504024017 | 58 | 69 | 1.0 | 3.0 | 0.00 | 0.00 | 0.00 | 61 | 1014.8 |
| 20260504023017 | 57 | 56 | 1.0 | 3.0 | 0.00 | 0.00 | 0.00 | 63 | 1014.8 |
| 20260504022017 | 57 | 77 | 0.0 | 1.0 | 0.00 | 0.00 | 0.00 | 65 | 1014.7 |
| 20260504021017 | 57 | 38 | 1.0 | 2.0 | 0.00 | 0.00 | 0.00 | 66 | 1014.7 |
| 20260504020017 | 57 | 343 | 0.0 | 2.0 | 0.00 | 0.00 | 0.00 | 65 | 1014.6 |
| 20260504015020 | 57 | 305 | 1.0 | 2.0 | 0.00 | 0.00 | 0.00 | 64 | 1014.6 |
| 20260504014018 | 57 | 293 | 1.0 | 2.0 | 0.00 | 0.00 | 0.00 | 65 | 1014.5 |
| 20260504013038 | 57 | 223 | 0.0 | 3.0 | 0.00 | 0.00 | 0.00 | 67 | 1014.4 |
| 20260504012018 | 58 | 336 | 0.0 | 1.0 | 0.00 | 0.00 | 0.00 | 66 | 1014.5 |
| 20260504011038 | 59 | 241 | 0.0 | 1.0 | 0.00 | 0.00 | 0.00 | 66 | 1014.5 |
| 20260504010019 | 60 | 263 | 1.0 | 2.0 | 0.00 | 0.00 | 0.00 | 64 | 1014.7 |
| 20260504005039 | 62 | 103 | 0.0 | 1.0 | 0.00 | 0.00 | 0.00 | 60 | 1014.8 |
| 20260504004018 | 63 | 336 | 0.0 | 1.0 | 0.00 | 0.00 | 0.00 | 55 | 1014.7 |
| 20260504003019 | 63 | 48 | 0.0 | 1.0 | 0.00 | 0.00 | 0.00 | 53 | 1014.6 |
| 20260504002019 | 64 | 280 | 1.0 | 2.0 | 0.00 | 0.00 | 0.00 | 50 | 1014.7 |
| 20260504001019 | 65 | 286 | 1.0 | 3.0 | 0.00 | 0.00 | 0.00 | 49 | 1014.7 |
| 20260504000019 | 67 | 295 | 1.0 | 3.0 | 0.00 | 0.00 | 0.00 | 47 | 1014.8 |
| 20260503235017 | 68 | 289 | 1.0 | 5.0 | 0.00 | 0.00 | 0.00 | 45 | 1014.9 |
| 20260503234017 | 68 | 290 | 1.0 | 4.0 | 0.00 | 0.00 | 0.00 | 44 | 1015.1 |
| 20260503233037 | 69 | 296 | 1.0 | 3.0 | 0.00 | 0.00 | 0.00 | 44 | 1015.2 |
| 20260503232020 | 70 | 272 | 2.0 | 4.0 | 0.00 | 0.00 | 0.00 | 43 | 1015.2 |
| 20260503231037 | 70 | 306 | 1.0 | 4.0 | 0.00 | 0.00 | 0.00 | 43 | 1015.3 |
| 20260503230017 | 70 | 286 | 2.0 | 4.0 | 0.00 | 0.00 | 0.00 | 44 | 1015.3 |
| 20260503225017 | 70 | 303 | 2.0 | 5.0 | 0.00 | 0.00 | 0.00 | 43 | 1015.3 |
| 20260503224018 | 70 | 287 | 2.0 | 5.0 | 0.00 | 0.00 | 0.00 | 43 | 1015.3 |
| 20260503223018 | 70 | 301 | 2.0 | 4.0 | 0.00 | 0.00 | 0.00 | 42 | 1015.5 |
| 20260503222018 | 71 | 298 | 2.0 | 7.0 | 0.00 | 0.00 | 0.00 | 42 | 1015.6 |
| 20260503221018 | 70 | 298 | 2.0 | 5.0 | 0.00 | 0.00 | 0.00 | 44 | 1015.8 |
| 20260503220038 | 70 | 237 | 2.0 | 6.0 | 0.00 | 0.00 | 0.00 | 43 | 1015.9 |
| 20260503215019 | 70 | 292 | 3.0 | 5.0 | 0.00 | 0.00 | 0.00 | 45 | 1016.0 |
| 20260503214018 | 70 | 300 | 3.0 | 6.0 | 0.00 | 0.00 | 0.00 | 45 | 1016.3 |
| 20260503213019 | 70 | 295 | 3.0 | 7.0 | 0.00 | 0.01 | 0.00 | 45 | 1016.3 |
| 20260503212016 | 69 | 322 | 2.0 | 5.0 | 0.00 | 0.01 | 0.00 | 46 | 1016.5 |
| 20260503211016 | 70 | 295 | 3.0 | 7.0 | 0.00 | 0.01 | 0.00 | 44 | 1016.7 |
| 20260503210039 | 68 | 270 | 2.0 | 6.0 | 0.00 | 0.01 | 0.00 | 46 | 1016.7 |
| 20260503205019 | 70 | 273 | 2.0 | 5.0 | 0.00 | 0.01 | 0.00 | 45 | 1016.9 |
| 20260503204040 | 69 | 316 | 2.0 | 6.0 | 0.00 | 0.01 | 0.00 | 46 | 1017.0 |
| 20260503203017 | 69 | 286 | 3.0 | 8.0 | 0.00 | 0.01 | 0.00 | 46 | 1017.2 |
| 20260503202017 | 68 | 279 | 2.0 | 5.0 | 0.00 | 0.01 | 0.00 | 45 | 1017.4 |
| 20260503201017 | 69 | 284 | 2.0 | 6.0 | 0.00 | 0.02 | 0.00 | 45 | 1017.7 |
| 20260503200020 | 69 | 283 | 2.0 | 5.0 | 0.00 | 0.02 | 0.00 | 44 | 1017.9 |
| 20260503195037 | 68 | 319 | 2.0 | 7.0 | 0.00 | 0.02 | 0.00 | 44 | 1018.1 |
| 20260503194018 | 67 | 296 | 2.0 | 5.0 | 0.00 | 0.02 | 0.00 | 46 | 1018.2 |
| 20260503193018 | 67 | 269 | 3.0 | 7.0 | 0.00 | 0.02 | 0.00 | 46 | 1018.4 |
| 20260503192018 | 66 | 344 | 2.0 | 4.0 | 0.00 | 0.02 | 0.00 | 47 | 1018.4 |
| 20260503191018 | 65 | 278 | 3.0 | 7.0 | 0.00 | 0.02 | 0.00 | 49 | 1018.6 |
| 20260503190018 | 66 | 274 | 2.0 | 5.0 | 0.00 | 0.02 | 0.00 | 48 | 1018.7 |
| 20260503185019 | 65 | 75 | 2.0 | 6.0 | 0.00 | 0.02 | 0.00 | 48 | 1018.9 |
| 20260503184018 | 63 | 266 | 2.0 | 5.0 | 0.00 | 0.02 | 0.00 | 48 | 1019.1 |
| 20260503183019 | 63 | 278 | 3.0 | 6.0 | 0.00 | 0.02 | 0.00 | 47 | 1019.2 |
| 20260503182019 | 63 | 272 | 2.0 | 4.0 | 0.00 | 0.02 | 0.00 | 48 | 1019.3 |
| 20260503181019 | 63 | 281 | 3.0 | 6.0 | 0.00 | 0.02 | 0.00 | 50 | 1019.4 |
| 20260503180019 | 63 | 286 | 2.0 | 8.0 | 0.00 | 0.02 | 0.00 | 51 | 1019.5 |
| 20260503175016 | 63 | 290 | 2.0 | 4.0 | 0.00 | 0.02 | 0.00 | 50 | 1019.6 |
| 20260503174016 | 62 | 342 | 1.0 | 3.0 | 0.00 | 0.02 | 0.00 | 49 | 1019.6 |
| 20260503173059 | 63 | 226 | 2.0 | 4.0 | 0.00 | 0.02 | 0.00 | 47 | 1019.8 |
| 20260503172020 | 62 | 297 | 2.0 | 8.0 | 0.00 | 0.02 | 0.00 | 49 | 1020.0 |
| 20260503171017 | 62 | 75 | 2.0 | 5.0 | 0.00 | 0.02 | 0.00 | 51 | 1020.1 |
| 20260503131027 | 45 | 95 | 1.0 | 2.0 | 0.00 | 0.02 | 0.00 | 99 | 1021.0 |